createdAt,value
2019-05-18T00:00:20.496Z,94688.06
2019-05-18T00:02:47.915Z,94691.24
2019-05-18T00:05:15.438Z,94691.55
2019-05-18T00:07:43.026Z,94700.01
2019-05-18T00:10:12.385Z,94696.09
2019-05-18T00:12:39.826Z,94695.81
2019-05-18T00:15:08.327Z,94698.11
2019-05-18T00:17:35.786Z,94690.33
2019-05-18T00:20:03.504Z,94704.33
2019-05-18T00:22:30.952Z,94693.36
2019-05-18T00:24:58.376Z,94700.82
2019-05-18T00:27:25.833Z,94696.89
2019-05-18T00:29:53.302Z,94691.88
2019-05-18T00:32:20.730Z,94680.23
2019-05-18T00:34:48.537Z,94686.22
2019-05-18T00:37:15.924Z,94679.22
2019-05-18T00:39:43.418Z,94685.25
2019-05-18T00:42:10.921Z,94685.69
2019-05-18T00:44:38.401Z,94691.75
2019-05-18T00:47:05.807Z,94692.50
2019-05-18T00:49:33.430Z,94692.50
2019-05-18T00:52:00.870Z,94696.48
2019-05-18T00:54:28.280Z,94684.38
2019-05-18T00:56:55.728Z,94684.80
2019-05-18T00:59:23.509Z,94679.55
2019-05-18T01:01:50.946Z,94680.58
2019-05-18T01:04:18.422Z,94682.64
2019-05-18T01:06:45.806Z,94681.94
2019-05-18T01:09:13.262Z,94676.30
2019-05-18T01:11:40.714Z,94675.80
2019-05-18T01:14:08.077Z,94671.96
2019-05-18T01:16:35.583Z,94665.78
2019-05-18T01:19:03.159Z,94670.14
2019-05-18T01:21:30.546Z,94664.09
2019-05-18T01:23:57.971Z,94660.82
2019-05-18T01:26:25.946Z,94669.20
2019-05-18T01:28:56.308Z,94666.00
2019-05-18T01:31:23.773Z,94673.29
2019-05-18T01:33:51.120Z,94663.32
2019-05-18T01:36:18.554Z,94660.88
2019-05-18T01:38:46.032Z,94655.92
2019-05-18T01:41:13.524Z,94650.69
2019-05-18T01:43:40.975Z,94652.20
2019-05-18T01:46:08.437Z,94646.08
2019-05-18T01:48:35.907Z,94645.06
2019-05-18T01:51:03.387Z,94636.02
2019-05-18T01:53:30.831Z,94641.63
2019-05-18T01:55:58.324Z,94645.38
2019-05-18T01:58:25.823Z,94644.19
2019-05-18T02:00:53.477Z,94648.16
2019-05-18T02:03:20.938Z,94646.42
2019-05-18T02:05:48.338Z,94639.91
2019-05-18T02:08:15.792Z,94634.28
2019-05-18T02:10:43.246Z,94631.53
2019-05-18T02:13:10.680Z,94627.59
2019-05-18T02:15:38.065Z,94639.31
2019-05-18T02:18:05.494Z,94629.02
2019-05-18T02:20:32.946Z,94636.90
2019-05-18T02:23:00.339Z,94637.09
2019-05-18T02:25:27.822Z,94626.92
2019-05-18T02:27:55.257Z,94631.15
2019-05-18T02:30:22.815Z,94638.63
2019-05-18T02:32:50.218Z,94624.39
2019-05-18T02:35:17.751Z,94629.52
2019-05-18T02:37:45.244Z,94634.92
2019-05-18T02:40:12.883Z,94625.91
2019-05-18T02:42:40.352Z,94626.81
2019-05-18T02:45:08.188Z,94622.14
2019-05-18T02:47:35.648Z,94630.39
2019-05-18T02:50:03.235Z,94630.69
2019-05-18T02:52:30.680Z,94630.95
2019-05-18T02:54:58.166Z,94635.16
2019-05-18T02:57:25.584Z,94641.45
2019-05-18T02:59:53.047Z,94630.52
2019-05-18T03:02:20.621Z,94643.44
2019-05-18T03:04:48.073Z,94645.12
2019-05-18T03:07:15.481Z,94648.28
2019-05-18T03:09:43.060Z,94645.18
2019-05-18T03:12:10.524Z,94638.11
2019-05-18T03:14:37.946Z,94628.21
2019-05-18T03:17:05.405Z,94639.97
2019-05-18T03:19:32.846Z,94646.28
2019-05-18T03:22:01.186Z,94652.59
2019-05-18T03:24:28.955Z,94650.20
2019-05-18T03:26:56.461Z,94669.27
2019-05-18T03:29:23.922Z,94664.02
2019-05-18T03:31:51.350Z,94659.35
2019-05-18T03:34:18.756Z,94660.70
2019-05-18T03:36:46.249Z,94671.52
2019-05-18T03:39:13.694Z,94675.15
2019-05-18T03:41:41.074Z,94672.00
2019-05-18T03:44:08.539Z,94665.55
2019-05-18T03:46:36.124Z,94673.02
2019-05-18T03:49:03.497Z,94680.39
2019-05-18T03:51:30.973Z,94668.22
2019-05-18T03:53:58.414Z,94670.17
2019-05-18T03:56:25.798Z,94666.86
2019-05-18T03:58:53.258Z,94674.38
2019-05-18T04:01:20.745Z,94674.97
2019-05-18T04:03:48.382Z,94677.97
2019-05-18T04:06:15.760Z,94674.82
2019-05-18T04:08:43.237Z,94677.23
2019-05-18T04:11:10.767Z,94678.44
2019-05-18T04:13:38.201Z,94683.08
2019-05-18T04:16:05.652Z,94683.40
2019-05-18T04:18:33.127Z,94678.41
2019-05-18T04:21:06.122Z,94681.42
2019-05-18T04:23:33.472Z,94678.72
2019-05-18T04:26:01.041Z,94662.91
2019-05-18T04:28:28.521Z,94675.70
2019-05-18T04:30:55.973Z,94677.23
2019-05-18T04:33:23.405Z,94677.95
2019-05-18T04:35:50.875Z,94679.89
2019-05-18T04:38:18.290Z,94674.42
2019-05-18T04:40:45.748Z,94683.03
2019-05-18T04:43:13.205Z,94692.01
2019-05-18T04:45:40.730Z,94695.95
2019-05-18T04:48:08.100Z,94697.84
2019-05-18T04:50:35.555Z,94690.43
2019-05-18T04:53:03.074Z,94694.63
2019-05-18T04:55:30.463Z,94697.97
2019-05-18T04:57:57.907Z,94708.66
2019-05-18T05:00:25.329Z,94699.06
2019-05-18T05:02:52.803Z,94684.53
2019-05-18T05:05:20.351Z,94697.92
2019-05-18T05:07:47.817Z,94693.77
2019-05-18T05:10:15.191Z,94695.38
2019-05-18T05:12:42.647Z,94705.77
2019-05-18T05:15:10.314Z,94691.41
2019-05-18T05:17:37.668Z,94697.91
2019-05-18T05:20:18.730Z,94699.13
2019-05-18T05:22:35.093Z,94703.41
2019-05-18T05:25:02.789Z,94706.98
2019-05-18T05:27:30.308Z,94702.38
2019-05-18T05:29:57.723Z,94708.42
2019-05-18T05:32:25.189Z,94707.00
2019-05-18T05:34:52.654Z,94705.19
2019-05-18T05:37:20.060Z,94702.94
2019-05-18T05:39:47.602Z,94703.83
2019-05-18T05:42:15.104Z,94714.33
2019-05-18T05:44:42.534Z,94713.45
2019-05-18T05:47:09.969Z,94709.05
2019-05-18T05:49:37.508Z,94713.58
2019-05-18T05:52:04.981Z,94705.09
2019-05-18T05:54:32.477Z,94709.53
2019-05-18T05:57:00.944Z,94704.83
2019-05-18T05:59:29.561Z,94711.31
2019-05-18T06:01:57.032Z,94708.28
2019-05-18T06:04:24.397Z,94706.46
2019-05-18T06:06:51.977Z,94714.32
2019-05-18T06:09:19.407Z,94706.41
2019-05-18T06:11:46.771Z,94701.12
2019-05-18T06:14:14.239Z,94703.08
2019-05-18T06:16:41.694Z,94697.10
2019-05-18T06:19:09.173Z,94704.58
2019-05-18T06:21:36.691Z,94698.59
2019-05-18T06:24:04.170Z,94703.72
2019-05-18T06:26:31.593Z,94707.06
2019-05-18T06:28:59.026Z,94701.67
2019-05-18T06:31:26.457Z,94703.55
2019-05-18T06:33:53.895Z,94710.37
2019-05-18T06:36:21.293Z,94706.30
2019-05-18T06:38:49.444Z,94717.57
2019-05-18T06:41:16.913Z,94721.61
2019-05-18T06:43:44.367Z,94721.89
2019-05-18T06:46:11.854Z,94712.92
2019-05-18T06:48:39.278Z,94713.94
2019-05-18T06:51:07.786Z,94716.29
2019-05-18T06:53:35.385Z,94717.95
2019-05-18T06:56:03.649Z,94717.81
2019-05-18T06:58:31.771Z,94706.47
2019-05-18T07:00:59.293Z,94705.88
2019-05-18T07:03:26.757Z,94704.92
2019-05-18T07:05:54.311Z,94701.42
2019-05-18T07:08:21.848Z,94710.28
2019-05-18T07:10:49.243Z,94706.25
2019-05-18T07:13:16.735Z,94701.16
2019-05-18T07:15:44.444Z,94701.64
2019-05-18T07:18:11.850Z,94697.91
2019-05-18T07:20:39.289Z,94706.74
2019-05-18T07:23:06.719Z,94705.59
2019-05-18T07:25:34.221Z,94699.64
2019-05-18T07:28:02.193Z,94704.13
2019-05-18T07:30:29.875Z,94705.78
2019-05-18T07:32:57.334Z,94700.51
2019-05-18T07:35:24.783Z,94706.37
2019-05-18T07:37:52.241Z,94710.48
2019-05-18T07:40:19.803Z,94703.55
2019-05-18T07:42:47.332Z,94700.33
2019-05-18T07:45:15.199Z,94695.97
2019-05-18T07:47:42.642Z,94700.82
2019-05-18T07:50:10.204Z,94697.86
2019-05-18T07:52:37.642Z,94701.59
2019-05-18T07:55:05.269Z,94705.19
2019-05-18T07:57:32.784Z,94701.56
2019-05-18T08:00:00.193Z,94703.52
2019-05-18T08:02:27.704Z,94702.69
2019-05-18T08:04:55.104Z,94699.30
2019-05-18T08:07:22.526Z,94700.08
2019-05-18T08:09:50.159Z,94691.29
2019-05-18T08:12:17.607Z,94704.01
2019-05-18T08:14:45.009Z,94696.02
2019-05-18T08:17:12.462Z,94704.86
2019-05-18T08:19:39.925Z,94695.79
2019-05-18T08:22:07.321Z,94695.64
2019-05-18T08:24:34.820Z,94687.92
2019-05-18T08:27:02.583Z,94689.86
2019-05-18T08:29:30.769Z,94694.02
2019-05-18T08:31:58.318Z,94688.63
2019-05-18T08:34:25.829Z,94684.09
2019-05-18T08:36:53.193Z,94692.45
2019-05-18T08:39:20.698Z,94676.13
2019-05-18T08:41:48.873Z,94677.56
2019-05-18T08:44:16.675Z,94671.00
2019-05-18T08:46:44.132Z,94668.70
2019-05-18T08:49:11.980Z,94664.02
2019-05-18T08:51:39.421Z,94667.88
2019-05-18T08:54:06.892Z,94661.61
2019-05-18T08:56:34.374Z,94660.13
2019-05-18T08:59:01.837Z,94664.55
2019-05-18T09:01:29.257Z,94658.73
2019-05-18T09:03:56.752Z,94660.33
2019-05-18T09:06:24.210Z,94663.57
2019-05-18T09:08:51.648Z,94670.02
2019-05-18T09:11:19.273Z,94646.34
2019-05-18T09:13:46.729Z,94657.11
2019-05-18T09:16:14.223Z,94660.03
2019-05-18T09:18:41.606Z,94654.16
2019-05-18T09:21:09.054Z,94651.25
2019-05-18T09:23:36.547Z,94655.89
2019-05-18T09:26:03.938Z,94658.64
2019-05-18T09:28:31.423Z,94648.29
2019-05-18T09:30:58.881Z,94645.67
2019-05-18T09:33:26.285Z,94631.27
2019-05-18T09:35:53.719Z,94637.27
2019-05-18T09:38:21.992Z,94632.48
2019-05-18T09:40:49.532Z,94626.52
2019-05-18T09:43:16.974Z,94618.59
2019-05-18T09:45:44.564Z,94619.73
2019-05-18T09:48:11.929Z,94613.61
2019-05-18T09:50:39.430Z,94615.36
2019-05-18T09:53:06.866Z,94605.79
2019-05-18T09:55:34.243Z,94603.43
2019-05-18T09:58:01.681Z,94606.48
2019-05-18T10:00:36.865Z,94601.59
2019-05-18T10:02:58.750Z,94605.73
2019-05-18T10:05:26.167Z,94605.88
2019-05-18T10:07:53.623Z,94599.00
2019-05-18T10:10:21.299Z,94592.76
2019-05-18T10:12:48.786Z,94594.39
2019-05-18T10:15:16.611Z,94595.80
2019-05-18T10:17:44.029Z,94584.86
2019-05-18T10:20:12.159Z,94589.16
2019-05-18T10:22:53.518Z,94585.57
2019-05-18T10:25:10.164Z,94585.52
2019-05-18T10:27:37.635Z,94584.78
2019-05-18T10:30:06.075Z,94579.14
2019-05-18T10:32:33.517Z,94577.95
2019-05-18T10:35:00.963Z,94579.59
2019-05-18T10:37:28.399Z,94579.66
2019-05-18T10:39:55.826Z,94579.68
2019-05-18T10:42:23.268Z,94575.91
2019-05-18T10:44:50.702Z,94572.08
2019-05-18T10:47:18.067Z,94571.16
2019-05-18T10:49:45.528Z,94566.02
2019-05-18T10:52:12.968Z,94568.77
2019-05-18T10:54:40.453Z,94568.95
2019-05-18T10:57:07.878Z,94571.09
2019-05-18T10:59:35.233Z,94567.60
2019-05-18T11:02:03.230Z,94561.88
2019-05-18T11:04:30.968Z,94565.23
2019-05-18T11:06:58.557Z,94562.65
2019-05-18T11:09:25.999Z,94563.64
2019-05-18T11:11:53.465Z,94560.88
2019-05-18T11:14:20.997Z,94556.55
2019-05-18T11:16:48.461Z,94547.58
2019-05-18T11:19:15.994Z,94543.30
2019-05-18T11:21:43.418Z,94557.42
2019-05-18T11:24:10.819Z,94544.52
2019-05-18T11:26:38.368Z,94534.14
2019-05-18T11:29:05.915Z,94528.53
2019-05-18T11:31:33.439Z,94528.95
2019-05-18T11:34:00.903Z,94531.55
2019-05-18T11:36:28.336Z,94519.03
2019-05-18T11:38:55.786Z,94508.89
2019-05-18T11:41:23.224Z,94514.38
2019-05-18T11:43:50.714Z,94511.24
2019-05-18T11:46:18.097Z,94506.13
2019-05-18T11:48:45.633Z,94510.74
2019-05-18T11:51:13.079Z,94502.08
2019-05-18T11:53:40.605Z,94505.16
2019-05-18T11:56:08.062Z,94505.27
2019-05-18T11:58:35.581Z,94500.72
2019-05-18T12:01:03.151Z,94498.23
2019-05-18T12:03:30.602Z,94494.45
2019-05-18T12:05:58.099Z,94491.70
2019-05-18T12:08:25.528Z,94488.53
2019-05-18T12:10:56.095Z,94476.77
2019-05-18T12:13:26.110Z,94487.77
2019-05-18T12:15:53.692Z,94478.36
2019-05-18T12:18:21.275Z,94482.66
2019-05-18T12:20:48.743Z,94469.81
2019-05-18T12:23:16.115Z,94470.47
2019-05-18T12:25:43.902Z,94467.89
2019-05-18T12:28:11.378Z,94462.52
2019-05-18T12:30:39.161Z,94463.64
2019-05-18T12:33:06.588Z,94449.25
2019-05-18T12:35:34.078Z,94452.37
2019-05-18T12:38:01.565Z,94453.64
2019-05-18T12:40:29.240Z,94452.37
2019-05-18T12:42:56.606Z,94450.80
2019-05-18T12:45:24.548Z,94442.30
2019-05-18T12:47:51.962Z,94434.95
2019-05-18T12:50:21.524Z,94430.71
2019-05-18T12:52:49.059Z,94429.14
2019-05-18T12:55:17.210Z,94420.67
2019-05-18T12:57:44.697Z,94416.92
2019-05-18T13:00:14.375Z,94416.13
2019-05-18T13:02:41.941Z,94417.70
2019-05-18T13:05:09.989Z,94413.64
2019-05-18T13:07:37.393Z,94411.41
2019-05-18T13:10:06.028Z,94417.01
2019-05-18T13:12:33.470Z,94413.59
2019-05-18T13:15:00.912Z,94405.08
2019-05-18T13:17:28.476Z,94403.53
2019-05-18T13:19:55.916Z,94405.64
2019-05-18T13:22:23.393Z,94408.00
2019-05-18T13:24:52.249Z,94407.01
2019-05-18T13:27:19.965Z,94407.08
2019-05-18T13:29:47.439Z,94392.70
2019-05-18T13:32:15.037Z,94396.03
2019-05-18T13:34:42.461Z,94390.95
2019-05-18T13:37:10.005Z,94392.63
2019-05-18T13:39:37.468Z,94395.65
2019-05-18T13:42:04.954Z,94394.16
2019-05-18T13:44:32.495Z,94387.95
2019-05-18T13:46:59.918Z,94383.64
2019-05-18T13:49:27.320Z,94377.67
2019-05-18T13:51:54.812Z,94384.92
2019-05-18T13:54:22.277Z,94389.12
2019-05-18T13:56:49.746Z,94390.61
2019-05-18T13:59:17.182Z,94384.45
2019-05-18T14:01:44.627Z,94388.84
2019-05-18T14:04:12.093Z,94382.97
2019-05-18T14:06:39.573Z,94384.89
2019-05-18T14:09:07.020Z,94370.50
2019-05-18T14:11:34.395Z,94379.64
2019-05-18T14:14:01.974Z,94380.86
2019-05-18T14:16:29.522Z,94378.09
2019-05-18T14:18:57.006Z,94374.02
2019-05-18T14:21:24.642Z,94374.02
2019-05-18T14:23:52.098Z,94381.49
2019-05-18T14:26:19.534Z,94385.45
2019-05-18T14:28:46.988Z,94385.64
2019-05-18T14:31:14.427Z,94383.87
2019-05-18T14:33:41.903Z,94381.77
2019-05-18T14:36:09.382Z,94384.45
2019-05-18T14:38:36.866Z,94379.55
2019-05-18T14:41:04.425Z,94380.45
2019-05-18T14:43:31.805Z,94380.41
2019-05-18T14:45:59.260Z,94375.29
2019-05-18T14:48:26.718Z,94366.63
2019-05-18T14:50:54.146Z,94371.89
2019-05-18T14:53:21.529Z,94364.06
2019-05-18T14:55:49.042Z,94367.47
2019-05-18T14:58:16.466Z,94369.67
2019-05-18T15:00:44.098Z,94366.66
2019-05-18T15:03:11.537Z,94362.13
2019-05-18T15:05:39.096Z,94373.83
2019-05-18T15:08:06.533Z,94360.39
2019-05-18T15:10:34.026Z,94357.15
2019-05-18T15:13:01.465Z,94357.34
2019-05-18T15:15:28.907Z,94351.70
2019-05-18T15:17:56.251Z,94350.98
2019-05-18T15:20:23.908Z,94352.17
2019-05-18T15:22:51.447Z,94346.83
2019-05-18T15:25:19.069Z,94348.21
2019-05-18T15:27:46.471Z,94342.70
2019-05-18T15:30:14.086Z,94340.21
2019-05-18T15:32:41.522Z,94349.15
2019-05-18T15:35:09.383Z,94338.25
2019-05-18T15:37:36.855Z,94344.00
2019-05-18T15:40:04.589Z,94346.20
2019-05-18T15:42:32.031Z,94347.30
2019-05-18T15:44:59.464Z,94350.24
2019-05-18T15:47:26.914Z,94353.39
2019-05-18T15:49:54.355Z,94351.89
2019-05-18T15:52:21.776Z,94345.91
2019-05-18T15:54:49.219Z,94351.64
2019-05-18T15:57:16.783Z,94348.03
2019-05-18T15:59:44.230Z,94353.28
2019-05-18T16:02:11.702Z,94348.69
2019-05-18T16:04:39.188Z,94358.27
2019-05-18T16:07:06.612Z,94353.74
2019-05-18T16:09:34.090Z,94358.36
2019-05-18T16:12:01.548Z,94361.66
2019-05-18T16:14:29.022Z,94356.98
2019-05-18T16:16:56.585Z,94366.55
2019-05-18T16:19:24.056Z,94364.16
2019-05-18T16:21:51.554Z,94359.99
2019-05-18T16:24:19.072Z,94360.19
2019-05-18T16:26:46.509Z,94357.23
2019-05-18T16:29:14.070Z,94362.52
2019-05-18T16:31:41.660Z,94367.02
2019-05-18T16:34:09.168Z,94361.77
2019-05-18T16:36:36.640Z,94363.51
2019-05-18T16:39:06.136Z,94362.67
2019-05-18T16:41:33.676Z,94358.80
2019-05-18T16:44:01.562Z,94369.67
2019-05-18T16:46:29.007Z,94360.19
2019-05-18T16:48:56.747Z,94373.38
2019-05-18T16:51:24.196Z,94368.86
2019-05-18T16:53:51.576Z,94375.13
2019-05-18T16:56:19.113Z,94369.04
2019-05-18T16:58:46.570Z,94374.84
2019-05-18T17:01:13.947Z,94363.31
2019-05-18T17:03:41.420Z,94370.59
2019-05-18T17:06:08.831Z,94372.70
2019-05-18T17:08:36.217Z,94359.47
2019-05-18T17:11:03.637Z,94358.61
2019-05-18T17:13:31.078Z,94361.28
2019-05-18T17:15:58.523Z,94374.38
2019-05-18T17:18:25.881Z,94365.88
2019-05-18T17:20:53.361Z,94369.77
2019-05-18T17:23:20.940Z,94366.31
2019-05-18T17:25:48.472Z,94369.03
2019-05-18T17:28:15.843Z,94371.23
2019-05-18T17:30:43.310Z,94366.43
2019-05-18T17:33:10.757Z,94369.91
2019-05-18T17:35:38.161Z,94372.22
2019-05-18T17:38:05.588Z,94373.66
2019-05-18T17:40:33.035Z,94370.70
2019-05-18T17:43:00.447Z,94374.61
2019-05-18T17:45:27.919Z,94380.42
2019-05-18T17:47:55.414Z,94375.02
2019-05-18T17:50:22.852Z,94380.73
2019-05-18T17:52:50.231Z,94380.55
2019-05-18T17:55:17.847Z,94391.08
2019-05-18T17:57:45.445Z,94386.56
2019-05-18T18:00:13.608Z,94384.97
2019-05-18T18:02:40.970Z,94387.18
2019-05-18T18:05:09.104Z,94392.28
2019-05-18T18:07:36.743Z,94385.57
2019-05-18T18:10:05.293Z,94395.98
2019-05-18T18:12:32.743Z,94399.56
2019-05-18T18:15:00.169Z,94406.59
2019-05-18T18:17:27.557Z,94410.54
2019-05-18T18:19:54.989Z,94409.84
2019-05-18T18:22:23.897Z,94410.96
2019-05-18T18:24:51.542Z,94406.58
2019-05-18T18:27:25.102Z,94411.78
2019-05-18T18:29:48.286Z,94407.17
2019-05-18T18:32:16.068Z,94415.43
2019-05-18T18:34:43.597Z,94421.98
2019-05-18T18:37:11.039Z,94415.76
2019-05-18T18:39:38.508Z,94418.77
2019-05-18T18:42:06.072Z,94420.36
2019-05-18T18:44:33.504Z,94418.70
2019-05-18T18:47:00.918Z,94418.18
2019-05-18T18:49:28.299Z,94415.82
2019-05-18T18:51:55.770Z,94422.30
2019-05-18T18:54:23.187Z,94422.34
2019-05-18T18:56:50.613Z,94429.23
2019-05-18T18:59:18.024Z,94433.81
2019-05-18T19:01:45.454Z,94435.95
2019-05-18T19:04:12.852Z,94437.84
2019-05-18T19:06:40.329Z,94440.14
2019-05-18T19:09:07.945Z,94447.97
2019-05-18T19:11:35.431Z,94449.23
2019-05-18T19:14:03.068Z,94457.80
2019-05-18T19:16:30.483Z,94459.34
2019-05-18T19:18:57.985Z,94462.69
2019-05-18T19:21:25.393Z,94451.91
2019-05-18T19:23:52.858Z,94455.34
2019-05-18T19:26:20.564Z,94465.64
2019-05-18T19:28:47.979Z,94464.44
2019-05-18T19:31:16.024Z,94472.59
2019-05-18T19:33:44.002Z,94468.20
2019-05-18T19:36:11.457Z,94463.36
2019-05-18T19:38:38.986Z,94460.91
2019-05-18T19:41:06.378Z,94454.92
2019-05-18T19:43:33.803Z,94448.22
2019-05-18T19:46:01.259Z,94459.24
2019-05-18T19:48:28.670Z,94461.88
2019-05-18T19:50:56.228Z,94455.62
2019-05-18T19:53:23.713Z,94471.36
2019-05-18T19:55:51.104Z,94465.25
2019-05-18T19:58:18.592Z,94459.66
2019-05-18T20:00:46.190Z,94463.98
2019-05-18T20:03:13.692Z,94453.59
2019-05-18T20:05:41.174Z,94442.48
2019-05-18T20:08:08.566Z,94446.86
2019-05-18T20:10:36.031Z,94440.41
2019-05-18T20:13:03.486Z,94433.23
2019-05-18T20:15:30.945Z,94434.15
2019-05-18T20:17:58.373Z,94440.41
2019-05-18T20:20:27.840Z,94450.93
2019-05-18T20:22:55.294Z,94448.75
2019-05-18T20:25:22.877Z,94445.13
2019-05-18T20:27:50.348Z,94460.30
2019-05-18T20:30:18.637Z,94458.51
2019-05-18T20:32:46.154Z,94460.16
2019-05-18T20:35:13.895Z,94451.99
2019-05-18T20:37:41.476Z,94439.59
2019-05-18T20:40:09.680Z,94446.23
2019-05-18T20:42:37.777Z,94455.78
2019-05-18T20:45:05.864Z,94458.31
2019-05-18T20:47:33.451Z,94473.72
2019-05-18T20:50:00.973Z,94475.64
2019-05-18T20:52:28.313Z,94477.68
2019-05-18T20:54:55.802Z,94483.51
2019-05-18T20:57:23.219Z,94482.34
2019-05-18T20:59:50.683Z,94485.28
2019-05-18T21:02:18.227Z,94488.36
2019-05-18T21:04:45.587Z,94491.77
2019-05-18T21:07:13.067Z,94487.61
2019-05-18T21:09:40.482Z,94484.65
2019-05-18T21:12:07.851Z,94485.23
2019-05-18T21:14:35.256Z,94485.41
2019-05-18T21:17:02.697Z,94478.86
2019-05-18T21:19:30.074Z,94478.28
2019-05-18T21:21:57.495Z,94479.67
2019-05-18T21:24:24.959Z,94483.94
2019-05-18T21:26:52.313Z,94473.88
2019-05-18T21:29:19.736Z,94479.73
2019-05-18T21:31:47.238Z,94485.95
2019-05-18T21:34:14.868Z,94485.08
2019-05-18T21:36:42.269Z,94486.52
2019-05-18T21:39:09.691Z,94484.03
2019-05-18T21:41:37.117Z,94480.41
2019-05-18T21:44:04.572Z,94476.28
2019-05-18T21:46:31.998Z,94473.30
2019-05-18T21:48:59.429Z,94479.38
2019-05-18T21:51:26.816Z,94475.69
2019-05-18T21:53:54.239Z,94488.11
2019-05-18T21:56:21.695Z,94482.07
2019-05-18T21:58:49.052Z,94491.52
2019-05-18T22:01:16.588Z,94491.77
2019-05-18T22:03:48.059Z,94485.05
2019-05-18T22:06:13.267Z,94475.72
2019-05-18T22:08:40.696Z,94480.16
2019-05-18T22:11:08.139Z,94464.17
2019-05-18T22:13:35.597Z,94474.89
2019-05-18T22:16:02.975Z,94486.53
2019-05-18T22:18:30.406Z,94366.39
2019-05-18T22:20:57.829Z,94471.14
2019-05-18T22:23:25.256Z,94473.83
2019-05-18T22:25:52.707Z,94478.41
2019-05-18T22:28:20.176Z,94486.38
2019-05-18T22:30:47.654Z,94490.20
2019-05-18T22:33:15.086Z,94489.70
2019-05-18T22:35:42.783Z,94489.16
2019-05-18T22:38:10.255Z,94487.20
2019-05-18T22:40:37.605Z,94495.19
2019-05-18T22:43:05.072Z,94479.45
2019-05-18T22:45:32.530Z,94478.78
2019-05-18T22:47:59.922Z,94484.48
2019-05-18T22:50:27.656Z,94481.44
2019-05-18T22:52:55.180Z,94473.13
2019-05-18T22:55:22.597Z,94466.83
2019-05-18T22:57:50.010Z,94471.94
2019-05-18T23:00:17.614Z,94481.09
2019-05-18T23:02:45.059Z,94483.88
2019-05-18T23:05:12.573Z,94478.48
2019-05-18T23:07:39.982Z,94486.24
2019-05-18T23:10:07.702Z,94480.36
2019-05-18T23:12:35.148Z,94474.83
2019-05-18T23:15:02.579Z,94482.09
2019-05-18T23:17:29.988Z,94484.85
2019-05-18T23:19:57.419Z,94479.75
2019-05-18T23:22:24.852Z,94487.25
2019-05-18T23:24:52.304Z,94484.26
2019-05-18T23:27:19.684Z,94483.74
2019-05-18T23:29:47.134Z,94473.44
2019-05-18T23:32:14.602Z,94490.48
2019-05-18T23:34:42.196Z,94493.59
2019-05-18T23:37:09.716Z,94484.80
2019-05-18T23:39:37.266Z,94489.39
2019-05-18T23:42:04.778Z,94492.63
2019-05-18T23:44:32.236Z,94493.22
2019-05-18T23:46:59.606Z,94491.48
2019-05-18T23:49:27.018Z,94485.99
2019-05-18T23:51:54.552Z,94484.03
2019-05-18T23:54:21.924Z,94500.55
2019-05-18T23:56:49.354Z,94495.09
2019-05-18T23:59:16.805Z,94498.22
